Time;durP1;ratioP1;P1;durP2;ratioP2;P2;SDS_P1;SDS_P2;PMS_P1;PMS_P2;Temp;Humidity;BMP_temperature;BMP_pressure;BME280_temperature;BME280_humidity;BME280_pressure;Samples;Min_cycle;Max_cycle;Signal;HPM_P1;HPM_P2
2021/08/05 00:05:00;;;;;;;0.20;0.00;;;;;;;;;;10496231;28;20048;-24
2021/08/05 00:10:05;;;;;;;0.00;0.00;;;;;;;;;;10494019;28;20040;-23
2021/08/05 00:15:08;;;;;;;0.00;0.00;;;;;;;;;;10490826;28;20049;-24
2021/08/05 00:20:12;;;;;;;0.00;0.00;;;;;;;;;;10488632;28;20098;-24
2021/08/05 00:25:16;;;;;;;0.00;0.00;;;;;;;;;;10493529;28;20059;-24
2021/08/05 00:30:19;;;;;;;0.00;0.00;;;;;;;;;;10487597;28;20123;-23
2021/08/05 00:35:22;;;;;;;0.00;0.00;;;;;;;;;;10492126;28;20147;-24
2021/08/05 00:40:27;;;;;;;0.00;0.00;;;;;;;;;;10496106;28;20135;-23
2021/08/05 00:45:31;;;;;;;0.00;0.00;;;;;;;;;;10465270;28;20044;-24
2021/08/05 00:50:34;;;;;;;0.00;0.00;;;;;;;;;;10459623;28;20051;-24
2021/08/05 00:55:38;;;;;;;0.00;0.00;;;;;;;;;;10493782;28;20417;-24
2021/08/05 01:00:43;;;;;;;0.00;0.00;;;;;;;;;;10496058;28;20063;-24
2021/08/05 01:05:49;;;;;;;0.00;0.00;;;;;;;;;;10495765;28;20514;-24
2021/08/05 01:10:56;;;;;;;0.10;0.10;;;;;;;;;;10479372;28;20044;-23
2021/08/05 01:16:00;;;;;;;0.05;0.05;;;;;;;;;;10492160;28;20052;-24
2021/08/05 05:08:12;;;;;;;0.00;0.00;;;;;;;;;;10511242;28;20040;-23
2021/08/05 05:13:15;;;;;;;0.00;0.00;;;;;;;;;;10494051;28;20406;-23
2021/08/05 05:18:19;;;;;;;0.00;0.00;;;;;;;;;;10490478;28;20048;-23
2021/08/05 05:23:25;;;;;;;0.00;0.00;;;;;;;;;;10487484;28;20048;-23
2021/08/05 05:28:31;;;;;;;0.00;0.00;;;;;;;;;;10489587;28;20044;-22
2021/08/05 05:33:36;;;;;;;0.25;0.10;;;;;;;;;;10467520;28;20052;-23
2021/08/05 05:38:41;;;;;;;0.00;0.00;;;;;;;;;;10485298;28;20040;-23
2021/08/05 05:43:44;;;;;;;0.08;0.08;;;;;;;;;;10488093;28;20102;-23
2021/08/05 05:48:46;;;;;;;0.00;0.00;;;;;;;;;;10487917;28;20048;-23
2021/08/05 05:53:51;;;;;;;0.10;0.10;;;;;;;;;;10484843;28;20094;-23
2021/08/05 05:58:53;;;;;;;0.00;0.00;;;;;;;;;;10480927;28;20152;-23
2021/08/05 06:03:56;;;;;;;0.00;0.00;;;;;;;;;;10487418;28;20071;-23
2021/08/05 06:09:02;;;;;;;0.00;0.00;;;;;;;;;;10484546;28;20060;-23
2021/08/05 06:14:04;;;;;;;0.00;0.00;;;;;;;;;;10489963;28;20054;-23
2021/08/05 06:19:07;;;;;;;0.00;0.00;;;;;;;;;;10497628;28;20064;-23
2021/08/05 06:24:12;;;;;;;0.10;0.10;;;;;;;;;;10495993;28;20059;-23
2021/08/05 06:29:15;;;;;;;0.00;0.00;;;;;;;;;;10484659;28;20036;-23
2021/08/05 06:34:18;;;;;;;0.00;0.00;;;;;;;;;;10480417;28;20044;-23
2021/08/05 06:39:22;;;;;;;0.00;0.00;;;;;;;;;;10492273;28;20044;-23
2021/08/05 06:44:25;;;;;;;0.00;0.00;;;;;;;;;;10492283;28;20059;-23
2021/08/05 06:49:27;;;;;;;0.00;0.00;;;;;;;;;;10495314;28;20047;-23
2021/08/05 06:54:31;;;;;;;0.00;0.00;;;;;;;;;;10498402;28;20040;-23
2021/08/05 06:59:34;;;;;;;0.00;0.00;;;;;;;;;;10495751;28;20060;-23
2021/08/05 07:04:41;;;;;;;0.00;0.00;;;;;;;;;;10495086;28;20044;-23
2021/08/05 07:09:45;;;;;;;0.00;0.00;;;;;;;;;;10496188;28;20044;-23
2021/08/05 07:14:47;;;;;;;0.00;0.00;;;;;;;;;;10481526;28;20045;-23
2021/08/05 07:19:50;;;;;;;0.00;0.00;;;;;;;;;;10492725;28;20511;-24
2021/08/05 07:24:54;;;;;;;0.00;0.00;;;;;;;;;;10497001;28;20048;-24
2021/08/05 07:29:57;;;;;;;0.00;0.00;;;;;;;;;;10491755;28;20050;-22
2021/08/05 07:35:00;;;;;;;0.00;0.00;;;;;;;;;;10495889;28;20067;-23
2021/08/05 07:40:04;;;;;;;0.00;0.00;;;;;;;;;;10487776;28;20040;-23
2021/08/05 07:45:08;;;;;;;0.00;0.00;;;;;;;;;;10493868;28;20059;-23
2021/08/05 07:50:13;;;;;;;0.00;0.00;;;;;;;;;;10484920;28;20044;-23
2021/08/05 07:55:19;;;;;;;0.00;0.00;;;;;;;;;;10489252;28;20044;-23
2021/08/05 08:00:22;;;;;;;0.00;0.00;;;;;;;;;;10495878;28;20032;-23
2021/08/05 08:05:24;;;;;;;0.00;0.00;;;;;;;;;;10490717;28;20069;-24
2021/08/05 08:10:28;;;;;;;0.00;0.00;;;;;;;;;;10489480;28;20059;-23
2021/08/05 08:15:51;;;;;;;0.00;0.00;;;;;;;;;;10493931;28;20063;-23
2021/08/05 08:20:55;;;;;;;0.00;0.00;;;;;;;;;;10493893;28;20047;-23
2021/08/05 08:25:59;;;;;;;0.00;0.00;;;;;;;;;;10478407;28;20448;-23
2021/08/05 08:31:02;;;;;;;0.00;0.00;;;;;;;;;;10483640;28;20118;-23
2021/08/05 08:36:05;;;;;;;0.00;0.00;;;;;;;;;;10489597;28;20128;-24
2021/08/05 08:41:11;;;;;;;0.00;0.00;;;;;;;;;;10495295;28;20480;-24
2021/08/05 08:46:20;;;;;;;0.00;0.00;;;;;;;;;;10483243;28;20044;-23
2021/08/05 08:51:23;;;;;;;0.00;0.00;;;;;;;;;;10491884;28;20077;-24
2021/08/05 08:56:27;;;;;;;0.00;0.00;;;;;;;;;;10486538;28;20485;-24
2021/08/05 09:01:30;;;;;;;0.00;0.00;;;;;;;;;;10490459;28;20040;-23
2021/08/05 09:06:33;;;;;;;0.00;0.00;;;;;;;;;;10486884;28;20076;-23
2021/08/05 09:11:37;;;;;;;0.00;0.00;;;;;;;;;;10489667;28;20371;-24
2021/08/05 09:16:40;;;;;;;0.00;0.00;;;;;;;;;;10480319;28;20855;-23
2021/08/05 09:21:50;;;;;;;0.00;0.00;;;;;;;;;;10478499;28;20052;-24
2021/08/05 09:26:56;;;;;;;0.00;0.00;;;;;;;;;;10484213;28;20040;-23
2021/08/05 09:32:01;;;;;;;0.10;0.00;;;;;;;;;;10476624;28;20037;-23
2021/08/05 09:37:06;;;;;;;0.00;0.00;;;;;;;;;;10492219;28;20051;-23
2021/08/05 09:42:10;;;;;;;0.00;0.00;;;;;;;;;;10491342;28;20048;-23
2021/08/05 09:47:14;;;;;;;0.00;0.00;;;;;;;;;;10491273;28;20135;-24
2021/08/05 09:52:17;;;;;;;0.00;0.00;;;;;;;;;;10495275;28;20752;-23
2021/08/05 09:57:24;;;;;;;0.00;0.00;;;;;;;;;;10498415;28;20079;-23
2021/08/05 10:02:27;;;;;;;0.00;0.00;;;;;;;;;;10488154;28;20048;-23
2021/08/05 10:07:40;;;;;;;0.00;0.00;;;;;;;;;;10498216;28;20432;-23
2021/08/05 10:12:51;;;;;;;0.00;0.00;;;;;;;;;;10492545;28;20039;-24
2021/08/05 10:17:55;;;;;;;0.00;0.00;;;;;;;;;;10497258;28;20153;-22
2021/08/05 10:22:58;;;;;;;0.00;0.00;;;;;;;;;;10501309;28;20477;-22
2021/08/05 10:28:02;;;;;;;0.00;0.00;;;;;;;;;;10500956;28;20058;-22
2021/08/05 10:33:05;;;;;;;0.00;0.00;;;;;;;;;;10491232;28;20626;-22
2021/08/05 10:38:07;;;;;;;0.00;0.00;;;;;;;;;;10495864;28;20055;-22
2021/08/05 10:43:13;;;;;;;0.00;0.00;;;;;;;;;;10494104;28;20044;-23
2021/08/05 10:48:16;;;;;;;0.00;0.00;;;;;;;;;;10498100;28;20382;-23
2021/08/05 10:53:43;;;;;;;0.00;0.00;;;;;;;;;;10496100;28;20505;-23
2021/08/05 10:59:00;;;;;;;0.00;0.00;;;;;;;;;;10463894;28;20051;-22
2021/08/05 11:04:05;;;;;;;0.00;0.00;;;;;;;;;;10497011;28;20512;-22
2021/08/05 11:09:27;;;;;;;0.00;0.00;;;;;;;;;;10493429;28;20055;-23
2021/08/05 11:14:40;;;;;;;0.00;0.00;;;;;;;;;;10495037;28;20036;-22
2021/08/05 11:19:44;;;;;;;0.00;0.00;;;;;;;;;;10496150;28;20498;-22
2021/08/05 11:24:53;;;;;;;0.00;0.00;;;;;;;;;;10491540;28;20041;-22
2021/08/05 11:29:56;;;;;;;0.00;0.00;;;;;;;;;;10493292;28;20044;-22
2021/08/05 11:35:01;;;;;;;0.00;0.00;;;;;;;;;;10493157;28;20044;-23
2021/08/05 11:40:05;;;;;;;0.00;0.00;;;;;;;;;;10488644;28;20070;-22
2021/08/05 11:45:09;;;;;;;0.00;0.00;;;;;;;;;;10487869;28;20044;-23
2021/08/05 11:50:18;;;;;;;0.00;0.00;;;;;;;;;;10495210;28;20052;-22
2021/08/05 11:55:41;;;;;;;0.00;0.00;;;;;;;;;;10494921;28;20048;-23
2021/08/05 12:00:43;;;;;;;0.00;0.00;;;;;;;;;;10478909;28;20852;-22
2021/08/05 12:11:05;;;;;;;0.00;0.00;;;;;;;;;;10592458;27;20612;-21
2021/08/05 12:16:08;;;;;;;0.10;0.00;;;;;;;;;;10592685;27;20048;-21
2021/08/05 12:21:14;;;;;;;0.00;0.00;;;;;;;;;;10594590;27;20051;-22
2021/08/05 12:26:20;;;;;;;0.00;0.00;;;;;;;;;;10596481;27;20043;-22
2021/08/05 12:31:24;;;;;;;0.00;0.00;;;;;;;;;;10594471;28;20396;-22
2021/08/05 12:36:27;;;;;;;0.00;0.00;;;;;;;;;;10595846;27;20044;-22
2021/08/05 12:41:32;;;;;;;0.00;0.00;;;;;;;;;;10595076;27;20047;-22
2021/08/05 12:46:34;;;;;;;0.00;0.00;;;;;;;;;;10591906;27;20720;-22
2021/08/05 12:51:37;;;;;;;0.00;0.00;;;;;;;;;;10593090;27;20055;-22
2021/08/05 12:56:42;;;;;;;0.00;0.00;;;;;;;;;;10595888;27;20069;-22
2021/08/05 13:01:45;;;;;;;0.00;0.00;;;;;;;;;;10594133;27;20390;-22
2021/08/05 13:06:52;;;;;;;0.00;0.00;;;;;;;;;;10594363;27;20131;-22
2021/08/05 13:11:58;;;;;;;0.00;0.00;;;;;;;;;;10593588;27;20821;-22
2021/08/05 13:17:05;;;;;;;0.00;0.00;;;;;;;;;;10592659;27;20038;-22
2021/08/05 13:22:07;;;;;;;0.08;0.00;;;;;;;;;;10565305;27;20046;-21
2021/08/05 13:27:18;;;;;;;0.00;0.00;;;;;;;;;;10564358;27;20050;-22
2021/08/05 13:32:21;;;;;;;0.10;0.00;;;;;;;;;;10565651;27;20051;-22
2021/08/05 13:37:24;;;;;;;0.00;0.00;;;;;;;;;;10565054;28;20051;-23
2021/08/05 13:42:29;;;;;;;0.00;0.00;;;;;;;;;;10565529;28;20086;-21
2021/08/05 13:47:32;;;;;;;0.00;0.00;;;;;;;;;;10563042;28;20036;-22
2021/08/05 13:52:34;;;;;;;0.00;0.00;;;;;;;;;;10555802;27;20055;-22
2021/08/05 13:57:39;;;;;;;0.00;0.00;;;;;;;;;;10561833;28;20040;-22
2021/08/05 14:02:42;;;;;;;0.00;0.00;;;;;;;;;;10560938;28;20051;-22
2021/08/05 14:07:48;;;;;;;0.00;0.00;;;;;;;;;;10563520;28;20124;-22
2021/08/05 14:12:53;;;;;;;0.00;0.00;;;;;;;;;;10563738;28;20055;-22
2021/08/05 14:17:56;;;;;;;0.00;0.00;;;;;;;;;;10564242;28;20039;-21
2021/08/05 14:22:58;;;;;;;0.00;0.00;;;;;;;;;;10561444;27;20055;-22
2021/08/05 14:28:03;;;;;;;0.00;0.00;;;;;;;;;;10562063;28;20031;-22
2021/08/05 14:33:05;;;;;;;0.00;0.00;;;;;;;;;;10559297;28;20047;-22
2021/08/05 14:38:08;;;;;;;0.00;0.00;;;;;;;;;;10563092;28;20058;-22
2021/08/05 14:43:12;;;;;;;0.00;0.00;;;;;;;;;;10560615;28;20040;-22
2021/08/05 14:48:15;;;;;;;0.00;0.00;;;;;;;;;;10560469;28;20039;-23
2021/08/05 14:53:18;;;;;;;0.00;0.00;;;;;;;;;;10559374;27;20050;-22
2021/08/05 14:58:22;;;;;;;0.00;0.00;;;;;;;;;;10561992;28;20400;-23
2021/08/05 15:03:27;;;;;;;0.00;0.00;;;;;;;;;;10558181;27;20062;-23
2021/08/05 15:08:30;;;;;;;0.00;0.00;;;;;;;;;;10559285;28;20115;-22
2021/08/05 15:13:34;;;;;;;0.00;0.00;;;;;;;;;;10557561;28;20547;-22
2021/08/05 15:18:37;;;;;;;0.00;0.00;;;;;;;;;;10559365;28;20032;-21
2021/08/05 15:23:40;;;;;;;0.00;0.00;;;;;;;;;;10557168;28;20040;-22
2021/08/05 15:28:44;;;;;;;0.00;0.00;;;;;;;;;;10558617;28;20098;-22
2021/08/05 15:33:47;;;;;;;0.00;0.00;;;;;;;;;;10556947;28;20036;-22
2021/08/05 15:38:50;;;;;;;0.00;0.00;;;;;;;;;;10557077;28;20047;-22
2021/08/05 15:43:54;;;;;;;0.00;0.00;;;;;;;;;;10555757;27;20063;-22
2021/08/05 15:48:56;;;;;;;0.00;0.00;;;;;;;;;;10558407;28;20481;-22
2021/08/05 15:54:03;;;;;;;0.00;0.00;;;;;;;;;;10557341;28;20039;-22
2021/08/05 15:59:07;;;;;;;0.00;0.00;;;;;;;;;;10557300;28;20136;-22
2021/08/05 16:04:10;;;;;;;0.10;0.00;;;;;;;;;;10556457;28;20051;-21
2021/08/05 16:09:13;;;;;;;0.00;0.00;;;;;;;;;;10554336;27;20151;-22
2021/08/05 16:14:17;;;;;;;0.00;0.00;;;;;;;;;;10555128;28;20047;-21
2021/08/05 16:19:19;;;;;;;0.00;0.00;;;;;;;;;;10556692;28;20047;-21
2021/08/05 16:24:23;;;;;;;0.00;0.00;;;;;;;;;;10554412;28;20039;-22
2021/08/05 16:29:27;;;;;;;0.00;0.00;;;;;;;;;;10556135;28;20722;-22
2021/08/05 16:34:30;;;;;;;0.00;0.00;;;;;;;;;;10555786;28;20044;-22
2021/08/05 16:39:34;;;;;;;0.00;0.00;;;;;;;;;;10557293;28;20063;-22
2021/08/05 16:44:40;;;;;;;0.03;0.00;;;;;;;;;;10555792;28;20109;-22
2021/08/05 16:49:43;;;;;;;0.00;0.00;;;;;;;;;;10555561;28;20397;-22
2021/08/05 16:54:47;;;;;;;0.00;0.00;;;;;;;;;;10557329;28;20047;-22
2021/08/05 16:59:51;;;;;;;0.00;0.00;;;;;;;;;;10563769;28;20059;-22
2021/08/05 17:04:54;;;;;;;0.00;0.00;;;;;;;;;;10563400;27;20054;-23
2021/08/05 17:09:57;;;;;;;0.00;0.00;;;;;;;;;;10564900;28;20063;-22
2021/08/05 17:15:01;;;;;;;0.00;0.00;;;;;;;;;;10565465;27;20508;-22
2021/08/05 17:20:04;;;;;;;0.00;0.00;;;;;;;;;;10566276;27;20153;-22
2021/08/05 17:25:07;;;;;;;0.20;0.00;;;;;;;;;;10564045;28;20411;-22
2021/08/05 17:30:12;;;;;;;0.00;0.00;;;;;;;;;;10565306;27;20035;-22
2021/08/05 17:35:16;;;;;;;0.10;0.00;;;;;;;;;;10563162;27;20047;-22
2021/08/05 17:40:18;;;;;;;0.00;0.00;;;;;;;;;;10563372;27;20044;-22
2021/08/05 17:45:23;;;;;;;0.00;0.00;;;;;;;;;;10563633;28;20043;-22
2021/08/05 17:50:26;;;;;;;0.00;0.00;;;;;;;;;;10560953;28;20106;-22
2021/08/05 17:55:29;;;;;;;0.00;0.00;;;;;;;;;;10563315;27;20055;-22
2021/08/05 18:00:33;;;;;;;0.00;0.00;;;;;;;;;;10563461;28;20044;-22
2021/08/05 18:05:41;;;;;;;0.00;0.00;;;;;;;;;;10558353;28;20050;-22
2021/08/05 18:10:44;;;;;;;0.00;0.00;;;;;;;;;;10560242;28;20051;-22
2021/08/05 18:15:48;;;;;;;0.00;0.00;;;;;;;;;;10563367;28;20054;-21
2021/08/05 18:20:50;;;;;;;0.00;0.00;;;;;;;;;;10563803;28;20050;-22
2021/08/05 18:25:53;;;;;;;0.00;0.00;;;;;;;;;;10562165;27;20058;-22
2021/08/05 18:30:57;;;;;;;0.00;0.00;;;;;;;;;;10560746;28;20051;-22
2021/08/05 18:36:00;;;;;;;0.00;0.00;;;;;;;;;;10562328;28;20044;-22
2021/08/05 18:41:04;;;;;;;0.10;0.00;;;;;;;;;;10561482;28;20047;-21
2021/08/05 18:46:08;;;;;;;0.00;0.00;;;;;;;;;;10561174;28;20054;-24
2021/08/05 18:51:11;;;;;;;0.10;0.00;;;;;;;;;;10562350;28;20404;-22
2021/08/05 18:56:14;;;;;;;0.00;0.00;;;;;;;;;;10560609;28;20040;-22
2021/08/05 19:01:18;;;;;;;0.20;0.00;;;;;;;;;;10560810;27;20511;-22
2021/08/05 19:06:21;;;;;;;0.00;0.00;;;;;;;;;;10559044;28;20039;-22
2021/08/05 19:11:23;;;;;;;0.00;0.00;;;;;;;;;;10557941;27;20031;-23
2021/08/05 19:16:27;;;;;;;0.00;0.00;;;;;;;;;;10560176;28;20051;-23
2021/08/05 19:21:30;;;;;;;0.00;0.00;;;;;;;;;;10560899;28;20408;-24
2021/08/05 19:26:33;;;;;;;0.00;0.00;;;;;;;;;;10559687;28;20058;-23
2021/08/05 19:31:38;;;;;;;0.00;0.00;;;;;;;;;;10560002;27;20059;-24
2021/08/05 19:36:40;;;;;;;0.00;0.00;;;;;;;;;;10551892;28;20039;-23
2021/08/05 19:41:43;;;;;;;0.00;0.00;;;;;;;;;;10555624;28;20408;-23
2021/08/05 19:46:47;;;;;;;0.03;0.00;;;;;;;;;;10554739;28;20044;-23
2021/08/05 19:51:50;;;;;;;0.00;0.00;;;;;;;;;;10558091;28;20484;-24
2021/08/05 19:56:53;;;;;;;0.00;0.00;;;;;;;;;;10559555;28;20044;-23
2021/08/05 20:02:01;;;;;;;0.00;0.00;;;;;;;;;;10559905;27;20052;-25
2021/08/05 20:07:04;;;;;;;0.00;0.00;;;;;;;;;;10558734;28;20087;-23
2021/08/05 20:12:08;;;;;;;0.00;0.00;;;;;;;;;;10557865;28;20054;-23
2021/08/05 20:17:12;;;;;;;0.00;0.00;;;;;;;;;;10556534;28;20507;-22
2021/08/05 20:22:15;;;;;;;0.00;0.00;;;;;;;;;;10557924;28;20519;-23
2021/08/05 20:27:18;;;;;;;0.00;0.00;;;;;;;;;;10557250;28;20051;-23
2021/08/05 20:32:22;;;;;;;0.00;0.00;;;;;;;;;;10563258;28;20051;-23
2021/08/05 20:37:24;;;;;;;0.03;0.03;;;;;;;;;;10564811;28;20054;-23
2021/08/05 20:42:27;;;;;;;0.00;0.00;;;;;;;;;;10564782;27;20060;-23
2021/08/05 20:47:33;;;;;;;0.00;0.00;;;;;;;;;;10559946;28;20396;-23
2021/08/05 20:52:36;;;;;;;0.00;0.00;;;;;;;;;;10564126;28;20738;-23
2021/08/05 20:57:39;;;;;;;0.00;0.00;;;;;;;;;;10563919;28;20779;-24
2021/08/05 21:02:44;;;;;;;0.00;0.00;;;;;;;;;;10564370;28;20043;-23
2021/08/05 21:07:47;;;;;;;0.00;0.00;;;;;;;;;;10563294;28;20051;-23
2021/08/05 21:12:50;;;;;;;0.00;0.00;;;;;;;;;;10563120;27;20043;-23
2021/08/05 21:17:54;;;;;;;0.00;0.00;;;;;;;;;;10561508;28;20046;-23
2021/08/05 21:22:58;;;;;;;0.00;0.00;;;;;;;;;;10562735;28;20043;-23
2021/08/05 21:28:00;;;;;;;0.00;0.00;;;;;;;;;;10565936;28;20423;-23
2021/08/05 21:33:04;;;;;;;0.00;0.00;;;;;;;;;;10563936;28;20058;-23
2021/08/05 21:38:07;;;;;;;0.00;0.00;;;;;;;;;;10565198;28;20052;-23
2021/08/05 21:43:10;;;;;;;0.00;0.00;;;;;;;;;;10563718;28;20040;-24
2021/08/05 21:48:14;;;;;;;0.00;0.00;;;;;;;;;;10564719;27;20054;-24
2021/08/05 21:53:16;;;;;;;0.00;0.00;;;;;;;;;;10561001;28;20047;-24
2021/08/05 21:58:19;;;;;;;0.00;0.00;;;;;;;;;;10562512;28;20507;-23
2021/08/05 22:03:23;;;;;;;0.00;0.00;;;;;;;;;;10564012;28;20043;-24
2021/08/05 22:08:26;;;;;;;0.08;0.00;;;;;;;;;;10561616;28;20125;-23
2021/08/05 22:13:30;;;;;;;0.00;0.00;;;;;;;;;;10563182;28;20044;-23
2021/08/05 22:18:34;;;;;;;0.00;0.00;;;;;;;;;;10563879;27;20051;-23
2021/08/05 22:23:36;;;;;;;0.00;0.00;;;;;;;;;;10560681;28;20048;-23
2021/08/05 22:28:39;;;;;;;0.00;0.00;;;;;;;;;;10562091;28;20791;-23
2021/08/05 22:33:46;;;;;;;0.03;0.00;;;;;;;;;;10560665;28;20043;-23
2021/08/05 22:38:48;;;;;;;0.00;0.00;;;;;;;;;;10562866;28;20051;-24
2021/08/05 22:43:51;;;;;;;0.00;0.00;;;;;;;;;;10561243;28;20039;-23
2021/08/05 22:48:55;;;;;;;0.00;0.00;;;;;;;;;;10562765;28;20039;-23
2021/08/05 22:53:58;;;;;;;0.00;0.00;;;;;;;;;;10559097;27;20158;-24
2021/08/05 22:59:01;;;;;;;0.00;0.00;;;;;;;;;;10559976;28;20040;-22
2021/08/05 23:04:06;;;;;;;0.00;0.00;;;;;;;;;;10561680;27;20051;-24
2021/08/05 23:09:08;;;;;;;0.10;0.10;;;;;;;;;;10560432;28;20063;-23
2021/08/05 23:14:11;;;;;;;0.00;0.00;;;;;;;;;;10560271;28;20047;-22
2021/08/05 23:19:16;;;;;;;0.00;0.00;;;;;;;;;;10560741;28;20040;-23
2021/08/05 23:24:18;;;;;;;0.00;0.00;;;;;;;;;;10560526;28;20114;-23
2021/08/05 23:29:21;;;;;;;0.00;0.00;;;;;;;;;;10559209;28;20526;-23
2021/08/05 23:34:25;;;;;;;0.00;0.00;;;;;;;;;;10557636;28;20397;-23
2021/08/05 23:39:28;;;;;;;0.03;0.00;;;;;;;;;;10559055;27;20040;-23
2021/08/05 23:44:30;;;;;;;0.00;0.00;;;;;;;;;;10559239;28;20054;-24
2021/08/05 23:49:34;;;;;;;0.00;0.00;;;;;;;;;;10560208;28;20054;-23
2021/08/05 23:54:38;;;;;;;0.00;0.00;;;;;;;;;;10558971;28;20042;-23
2021/08/05 23:59:41;;;;;;;0.00;0.00;;;;;;;;;;10558645;28;20389;-23
